Fernando Pessoa — CSKQ — position and weather

sailwx.info

Track history (hours):
 
Tides and Currents Weather Stations Pressure Air Temp Water Temp Dewpoint Dewpoint Depression Visibility Wind Speed Wind Dir Waves Ship Positions

Fernando Pessoa

Last reported at 2018-Feb-20 21:30 UTC. Time now 2018-Feb-20 21:50 UTC.
Position N 38°39' W 009°06'.

Length 49 m.

MMSI: 263701470.

Date/timePositionNaut miles runAvg speedWind from/ knotsBaromVisibWave heightAir tempDewpointWater temp
2018-Feb-20 21:30N 38°39' W 009°06'1 1.6
2018-Feb-20 21:00N 38°39' W 009°05'0 0.0
2018-Feb-20 20:30N 38°39' W 009°05'4 8.3
2018-Feb-20 20:00N 38°42' W 009°08'4 8.4
2018-Feb-20 19:30N 38°39' W 009°05'4 8.0
2018-Feb-20 19:00N 38°42' W 009°08'2 4.6
2018-Feb-20 18:31N 38°40' W 009°07'1 1.7
2018-Feb-20 18:00N 38°40' W 009°06'3 5.9
2018-Feb-20 17:29N 38°42' W 009°08'4 8.7
2018-Feb-20 17:00N 38°39' W 009°05'0 0.3
2018-Feb-20 16:30N 38°39' W 009°05'0 0.0
2018-Feb-20 12:52N 38°39' W 009°05'0 0.0
2018-Feb-20 12:30N 38°39' W 009°05'0 0.1
2018-Feb-20 11:14N 38°39' W 009°05'0 0.0
2018-Feb-20 10:52N 38°39' W 009°05'3 9.0
2018-Feb-20 10:31N 38°41' W 009°08'3 5.3
2018-Feb-20 10:00N 38°39' W 009°06'1 1.5
2018-Feb-20 09:30N 38°39' W 009°05'4 7.8
2018-Feb-20 09:01N 38°42' W 009°08'2 3.7
2018-Feb-20 08:30N 38°40' W 009°07'1 2.3
2018-Feb-20 08:00N 38°40' W 009°06'3 6.2
2018-Feb-20 07:29N 38°42' W 009°08'4 8.6
2018-Feb-20 07:00N 38°39' W 009°05'4 8.2
2018-Feb-20 06:30N 38°42' W 009°08'4 8.3
2018-Feb-20 06:00N 38°39' W 009°05'4 7.9
2018-Feb-20 05:30N 38°42' W 009°08'4 7.7
2018-Feb-20 05:00N 38°39' W 009°05'0 0.0
2018-Feb-20 04:30N 38°39' W 009°05'0 0.0
2018-Feb-20 04:00N 38°39' W 009°05'0 0.0
2018-Feb-20 03:31N 38°39' W 009°05'0 0.0
2018-Feb-20 03:00N 38°39' W 009°05'0 0.0
2018-Feb-20 02:30N 38°39' W 009°05'4 8.3
2018-Feb-20 02:00N 38°42' W 009°08'4 8.3
2018-Feb-20 01:30N 38°39' W 009°05'4 8.3
2018-Feb-20 01:00N 38°42' W 009°08'4 8.3
2018-Feb-20 00:30N 38°39' W 009°05'4 8.3
2018-Feb-20 00:00N 38°42' W 009°08'4 8.4
2018-Feb-19 23:30N 38°39' W 009°05'3 6.3
2018-Feb-19 23:01N 38°41' W 009°08'2 4.9
2018-Feb-19 22:30N 38°39' W 009°06'3 5.2
2018-Feb-19 22:01N 38°41' W 009°08'2 4.9
2018-Feb-19 21:30N 38°39' W 009°06'1 1.8
2018-Feb-19 21:00N 38°39' W 009°05'0 0.0
2018-Feb-19 20:30N 38°39' W 009°05'4 8.3
2018-Feb-19 20:00N 38°42' W 009°08'4 8.4
2018-Feb-19 19:30N 38°39' W 009°05'4 7.8
2018-Feb-19 19:00N 38°42' W 009°08'2 4.6
2018-Feb-19 18:30N 38°40' W 009°07'1 1.7
2018-Feb-19 18:00N 38°39' W 009°06'3 6.7
2018-Feb-19 17:30N 38°42' W 009°08'4 8.3
2018-Feb-19 17:00N 38°39' W 009°05'0 0.0
2018-Feb-19 16:30N 38°39' W 009°05'0 0.0
2018-Feb-19 15:59N 38°39' W 009°05'0 0.0
2018-Feb-19 15:30N 38°39' W 009°05'0 0.0
2018-Feb-19 15:00N 38°39' W 009°05'0 0.0
2018-Feb-19 14:30N 38°39' W 009°05'0 0.0
2018-Feb-19 14:01N 38°39' W 009°05'0 0.0
2018-Feb-19 13:30N 38°39' W 009°05'3 6.8
2018-Feb-19 13:00N 38°41' W 009°08'3 5.3
2018-Feb-19 12:30N 38°39' W 009°06'3 5.4
2018-Feb-19 12:01N 38°42' W 009°07'3 5.6
2018-Feb-19 11:30N 38°39' W 009°06'1 1.2
2018-Feb-19 11:00N 38°39' W 009°05'0 0.0
2018-Feb-19 10:30N 38°39' W 009°05'4 8.2
2018-Feb-19 10:00N 38°42' W 009°08'4 8.4
2018-Feb-19 09:31N 38°39' W 009°05'4 8.3
2018-Feb-19 09:00N 38°42' W 009°08'4 8.0
2018-Feb-19 08:30N 38°39' W 009°05'2 5.0
2018-Feb-19 08:01N 38°41' W 009°08'1 1.9
2018-Feb-19 07:31N 38°40' W 009°07'0 0.9
2018-Feb-19 07:01N 38°40' W 009°06'  
2018-Feb-16 20:01N 38°39' W 009°05'0 0.0
2018-Feb-16 20:00N 38°39' W 009°05'4 7.8
2018-Feb-16 19:30N 38°42' W 009°08'4 8.5
2018-Feb-16 19:00N 38°39' W 009°05'4 8.1
2018-Feb-16 18:31N 38°42' W 009°08'2 4.2
2018-Feb-16 18:00N 38°40' W 009°07'1 2.7
2018-Feb-16 17:30N 38°39' W 009°06'3 6.9
2018-Feb-16 17:00N 38°42' W 009°08'4 8.3
2018-Feb-16 16:30N 38°39' W 009°05'3 7.0
2018-Feb-16 16:00N 38°41' W 009°08'3 5.4
2018-Feb-16 15:30N 38°39' W 009°06'1 1.5
2018-Feb-16 15:00N 38°39' W 009°05'0 0.0
2018-Feb-16 14:30N 38°39' W 009°05'0 0.1
2018-Feb-16 14:00N 38°39' W 009°05'3 6.7
2018-Feb-16 13:30N 38°41' W 009°08'3 5.1
2018-Feb-16 13:00N 38°39' W 009°06'3 5.9
2018-Feb-16 12:30N 38°42' W 009°08'3 6.2
2018-Feb-16 12:00N 38°39' W 009°06'3 5.3
2018-Feb-16 11:30N 38°41' W 009°08'3 6.1
2018-Feb-16 11:00N 38°39' W 009°05'0 0.8
2018-Feb-16 10:30N 38°39' W 009°05'2 3.5
2018-Feb-16 10:00N 38°40' W 009°07'1 1.3
2018-Feb-16 09:30N 38°40' W 009°07'0 0.4
2018-Feb-16 09:01N 38°40' W 009°07'0 0.5
2018-Feb-16 08:31N 38°40' W 009°07'0 0.6
2018-Feb-16 08:01N 38°40' W 009°08'2 3.6
2018-Feb-16 07:30N 38°39' W 009°06'1 1.3
2018-Feb-16 07:01N 38°39' W 009°05'0 0.0
2018-Feb-16 06:30N 38°39' W 009°05'0 0.0
2018-Feb-15 21:32N 38°39' W 009°05'0 0.0
2018-Feb-15 21:29N 38°39' W 009°05'2 4.4
2018-Feb-15 21:01N 38°40' W 009°07'0 0.4
2018-Feb-15 20:31N 38°40' W 009°07'2 4.8
2018-Feb-15 20:00N 38°39' W 009°05'3 5.6
2018-Feb-15 19:30N 38°41' W 009°08'2 3.7
2018-Feb-15 19:01N 38°40' W 009°06'3 6.2
2018-Feb-15 18:29N 38°42' W 009°08'4 8.9
2018-Feb-15 18:00N 38°39' W 009°05'3 5.6
2018-Feb-15 17:30N 38°41' W 009°08'1 1.5
2018-Feb-15 17:00N 38°41' W 009°08'1 1.9
2018-Feb-15 16:31N 38°41' W 009°07'3 5.2
2018-Feb-15 16:01N 38°39' W 009°05'0 0.0
2018-Feb-15 15:30N 38°39' W 009°05'3 6.9
2018-Feb-15 15:00N 38°41' W 009°08'3 5.4
2018-Feb-15 14:30N 38°39' W 009°06'3 5.4
2018-Feb-15 14:00N 38°42' W 009°08'3 5.6
2018-Feb-15 13:30N 38°39' W 009°06'1 1.5
2018-Feb-15 13:00N 38°39' W 009°05'0 0.0
2018-Feb-15 12:30N 38°39' W 009°05'0 0.0
2018-Feb-15 12:00N 38°39' W 009°05'0 0.0
2018-Feb-15 11:30N 38°39' W 009°05'0 0.1
2018-Feb-15 11:00N 38°39' W 009°05'3 6.7
2018-Feb-15 10:30N 38°41' W 009°08'3 5.8
2018-Feb-15 10:00N 38°39' W 009°05'1 1.1
2018-Feb-15 09:31N 38°39' W 009°05'3 5.8
2018-Feb-15 09:01N 38°41' W 009°08'0 0.9
2018-Feb-15 08:31N 38°40' W 009°08'2 4.2
2018-Feb-15 08:00N 38°39' W 009°05'4 7.5
2018-Feb-15 07:30N 38°42' W 009°08'4 8.3
2018-Feb-15 07:00N 38°39' W 009°05'4 7.5
2018-Feb-15 06:30N 38°42' W 009°08'3 6.9
2018-Feb-15 06:00N 38°39' W 009°05'3 7.0
2018-Feb-15 05:31N 38°42' W 009°08'4 7.6
2018-Feb-15 05:00N 38°39' W 009°05'0 0.0
2018-Feb-15 04:30N 38°39' W 009°05'0 0.0
2018-Feb-15 04:00N 38°39' W 009°05'0 0.0
2018-Feb-15 03:30N 38°39' W 009°05'0 0.0
2018-Feb-15 03:00N 38°39' W 009°05'0 0.0
2018-Feb-15 02:30N 38°39' W 009°05'4 8.4
2018-Feb-15 02:00N 38°42' W 009°08'4 8.3
2018-Feb-15 01:30N 38°39' W 009°05'4 8.3
2018-Feb-15 01:01N 38°42' W 009°08'4 8.3
2018-Feb-15 00:31N 38°39' W 009°05'4 8.3
2018-Feb-15 00:00N 38°42' W 009°08'4 8.3
2018-Feb-14 23:30N 38°39' W 009°05'4 7.1
2018-Feb-14 23:00N 38°42' W 009°08'3 6.1
2018-Feb-14 22:30N 38°39' W 009°06'3 5.9
2018-Feb-14 22:00N 38°42' W 009°08'3 5.9
2018-Feb-14 21:30N 38°39' W 009°06'1 1.4
2018-Feb-14 21:00N 38°39' W 009°05'0 0.0
2018-Feb-14 20:30N 38°39' W 009°05'4 8.3
2018-Feb-14 20:00N 38°42' W 009°08'4 8.3
2018-Feb-14 19:30N 38°39' W 009°05'4 8.0
2018-Feb-14 19:01N 38°42' W 009°08'2 4.6
2018-Feb-14 18:30N 38°40' W 009°07'1 2.3
2018-Feb-14 18:00N 38°39' W 009°06'3 7.0
2018-Feb-14 17:30N 38°42' W 009°08'4 8.3
2018-Feb-14 17:00N 38°39' W 009°05'0 0.3
2018-Feb-14 16:29N 38°39' W 009°05'0 0.0
2018-Feb-14 11:31N 38°39' W 009°05'0 0.1
2018-Feb-14 11:30N 38°39' W 009°05'0 0.2
2018-Feb-14 11:00N 38°39' W 009°05'3 6.8
2018-Feb-14 10:30N 38°42' W 009°08'3 5.7
2018-Feb-14 10:00N 38°39' W 009°06'1 1.5
2018-Feb-14 09:30N 38°39' W 009°05'4 7.1
2018-Feb-14 09:00N 38°42' W 009°08'2 3.4
2018-Feb-14 08:31N 38°40' W 009°07'2 4.1
2018-Feb-14 08:00N 38°39' W 009°05'4 7.7
2018-Feb-14 07:29N 38°42' W 009°08'4 8.8
2018-Feb-14 07:00N 38°39' W 009°05'4 8.1
2018-Feb-14 06:31N 38°42' W 009°08'4 7.6
2018-Feb-14 06:00N 38°39' W 009°05'4 7.6
2018-Feb-14 05:31N 38°42' W 009°08'4 7.9
2018-Feb-14 05:00N 38°39' W 009°05'0 0.0
2018-Feb-14 04:30N 38°39' W 009°05'0 0.0
2018-Feb-14 04:01N 38°39' W 009°05'0 0.0
2018-Feb-14 03:31N 38°39' W 009°05'0 0.0
2018-Feb-14 03:01N 38°39' W 009°05'0 0.0
2018-Feb-14 02:31N 38°39' W 009°05'4 8.2
2018-Feb-14 02:00N 38°42' W 009°08'4 8.5
2018-Feb-14 01:30N 38°39' W 009°05'4 8.3
2018-Feb-14 01:00N 38°42' W 009°08'4 8.3
2018-Feb-14 00:30N 38°39' W 009°05'4 8.3
2018-Feb-14 00:00N 38°42' W 009°08'4 8.2
2018-Feb-13 23:30N 38°39' W 009°05'3 6.9
2018-Feb-13 23:00N 38°41' W 009°08'3 5.3
2018-Feb-13 22:30N 38°39' W 009°06'3 5.0
2018-Feb-13 22:01N 38°41' W 009°08'2 4.9
2018-Feb-13 21:30N 38°39' W 009°06'3 5.2
2018-Feb-13 21:01N 38°41' W 009°08'2 4.8
2018-Feb-13 20:30N 38°40' W 009°06'1 2.0
2018-Feb-13 20:00N 38°39' W 009°05'3 6.4
2018-Feb-13 19:30N 38°41' W 009°08'2 4.1
2018-Feb-13 19:00N 38°40' W 009°06'2 4.7
2018-Feb-13 18:30N 38°42' W 009°08'3 5.2
2018-Feb-13 18:00N 38°39' W 009°06'3 5.6
2018-Feb-13 17:30N 38°42' W 009°08'3 5.1
2018-Feb-13 17:00N 38°40' W 009°06'2 4.3
2018-Feb-13 16:30N 38°41' W 009°08'2 4.7
2018-Feb-13 16:00N 38°39' W 009°06'2 4.9
2018-Feb-13 15:30N 38°41' W 009°08'2 4.9
2018-Feb-13 15:00N 38°39' W 009°06'1 1.7
2018-Feb-13 14:30N 38°39' W 009°05'0 0.0
2018-Feb-13 14:00N 38°39' W 009°05'0 0.0
2018-Feb-13 13:30N 38°39' W 009°05'3 6.3
2018-Feb-13 13:00N 38°41' W 009°08'2 4.9
2018-Feb-13 12:31N 38°39' W 009°06'2 5.0
2018-Feb-13 12:01N 38°41' W 009°08'2 4.5
2018-Feb-13 11:30N 38°40' W 009°06'3 5.1
2018-Feb-13 11:00N 38°42' W 009°08'3 5.5
2018-Feb-13 10:31N 38°39' W 009°06'3 5.9
2018-Feb-13 10:00N 38°42' W 009°08'3 6.1
2018-Feb-13 09:30N 38°39' W 009°06'3 6.2
2018-Feb-13 09:00N 38°42' W 009°08'3 6.2
2018-Feb-13 08:30N 38°39' W 009°06'3 6.0
2018-Feb-13 08:00N 38°42' W 009°08'3 6.0
2018-Feb-13 07:30N 38°39' W 009°06'0 0.4
2018-Feb-13 07:00N 38°39' W 009°06'1 2.5
2018-Feb-13 06:31N 38°40' W 009°07'1 1.5
2018-Feb-13 06:00N 38°40' W 009°06'2 3.4
2018-Feb-13 05:30N 38°41' W 009°08'3 5.9
2018-Feb-13 05:00N 38°39' W 009°05'0 0.0
2018-Feb-13 04:29N 38°39' W 009°05'0 0.0
2018-Feb-13 04:00N 38°39' W 009°05'0 0.0
2018-Feb-13 03:30N 38°39' W 009°05'0 0.0
2018-Feb-13 03:00N 38°39' W 009°05'0 0.0
2018-Feb-13 02:30N 38°39' W 009°05'4 8.6
2018-Feb-13 02:00N 38°42' W 009°08'4 8.3
2018-Feb-13 01:30N 38°39' W 009°05'4 8.4
2018-Feb-13 01:00N 38°42' W 009°08'4 8.3
2018-Feb-13 00:30N 38°39' W 009°05'4 8.3
2018-Feb-13 00:00N 38°42' W 009°08'4 8.2
2018-Feb-12 23:30N 38°39' W 009°05'3 6.5
2018-Feb-12 23:00N 38°41' W 009°08'2 4.9
2018-Feb-12 22:30N 38°39' W 009°06'3 5.1
2018-Feb-12 22:00N 38°41' W 009°08'2 4.9
2018-Feb-12 21:30N 38°39' W 009°06'1 1.8
2018-Feb-12 21:00N 38°39' W 009°05'0 0.0
2018-Feb-12 20:31N 38°39' W 009°05'4 8.3
2018-Feb-12 20:00N 38°42' W 009°08'4 8.3
2018-Feb-12 19:31N 38°39' W 009°05'4 7.9
2018-Feb-12 19:00N 38°42' W 009°08'2 4.8
2018-Feb-12 18:30N 38°40' W 009°07'1 1.5
2018-Feb-12 18:00N 38°40' W 009°06'3 6.5
2018-Feb-12 17:31N 38°42' W 009°08'4 8.3
2018-Feb-12 17:00N 38°39' W 009°05'0 0.3
2018-Feb-12 16:29N 38°39' W 009°05'0 0.0
2018-Feb-12 16:00N 38°39' W 009°05'0 0.0
2018-Feb-12 15:30N 38°39' W 009°05'0 0.0
2018-Feb-12 15:00N 38°39' W 009°05'0 0.0
2018-Feb-12 14:30N 38°39' W 009°05'0 0.0
2018-Feb-12 14:00N 38°39' W 009°05'0 0.0
2018-Feb-12 13:30N 38°39' W 009°05'0 0.0
2018-Feb-12 13:00N 38°39' W 009°05'0 0.0
2018-Feb-12 12:30N 38°39' W 009°05'0 0.0
2018-Feb-12 12:00N 38°39' W 009°05'0 0.0
2018-Feb-12 11:30N 38°39' W 009°05'0 0.0
2018-Feb-12 11:00N 38°39' W 009°05'0 0.0
2018-Feb-12 10:30N 38°39' W 009°05'0 0.2
2018-Feb-12 10:00N 38°39' W 009°05'2 3.3
2018-Feb-12 09:30N 38°40' W 009°07'1 1.5
2018-Feb-12 09:01N 38°39' W 009°06'3 6.7
2018-Feb-12 08:30N 38°42' W 009°08'4 8.3
2018-Feb-12 08:00N 38°39' W 009°05'3 6.6
2018-Feb-12 07:30N 38°42' W 009°08'3 6.9
2018-Feb-12 07:00N 38°39' W 009°05'0 0.4
2018-Feb-12 06:30N 38°39' W 009°05'0 0.0
2018-Feb-12 06:00N 38°39' W 009°05'0 0.0
2018-Feb-12 05:30N 38°39' W 009°05'0 0.0
2018-Feb-12 05:00N 38°39' W 009°05'0 0.0
2018-Feb-12 04:30N 38°39' W 009°05'0 0.0
2018-Feb-12 04:00N 38°39' W 009°05'0 0.0
2018-Feb-12 03:30N 38°39' W 009°05'0 0.0
2018-Feb-12 03:00N 38°39' W 009°05'0 0.0
2018-Feb-12 02:30N 38°39' W 009°05'0 0.0
2018-Feb-12 02:00N 38°39' W 009°05'0 0.0
2018-Feb-12 01:30N 38°39' W 009°05'0 0.0
2018-Feb-12 01:00N 38°39' W 009°05'0 0.0
2018-Feb-12 00:30N 38°39' W 009°05'0 0.0
2018-Feb-12 00:00N 38°39' W 009°05'0 0.0
2018-Feb-11 23:30N 38°39' W 009°05'0 0.0
2018-Feb-11 23:00N 38°39' W 009°05'0 0.0
2018-Feb-11 22:30N 38°39' W 009°05'0 0.0
2018-Feb-11 22:00N 38°39' W 009°05'0 0.0
2018-Feb-11 21:30N 38°39' W 009°05'0 0.0
2018-Feb-11 21:00N 38°39' W 009°05'0 0.0
2018-Feb-11 20:30N 38°39' W 009°05'0 0.0
2018-Feb-11 20:00N 38°39' W 009°05'0 0.0
2018-Feb-11 19:30N 38°39' W 009°05'0 0.0
2018-Feb-11 19:00N 38°39' W 009°05'0 0.0
2018-Feb-11 18:30N 38°39' W 009°05'0 0.0
2018-Feb-11 18:00N 38°39' W 009°05'0 0.0
2018-Feb-11 17:30N 38°39' W 009°05'0 0.0
2018-Feb-11 17:00N 38°39' W 009°05'0 0.0
2018-Feb-11 16:30N 38°39' W 009°05'0 0.0
2018-Feb-11 16:00N 38°39' W 009°05'0 0.0
2018-Feb-11 15:30N 38°39' W 009°05'0 0.0
2018-Feb-11 15:00N 38°39' W 009°05'0 0.0
2018-Feb-11 14:30N 38°39' W 009°05'0 0.0
2018-Feb-11 14:00N 38°39' W 009°05'0 0.0
2018-Feb-11 13:30N 38°39' W 009°05'0 0.0
2018-Feb-11 13:00N 38°39' W 009°05'0 0.0
2018-Feb-11 12:30N 38°39' W 009°05'0 0.0
2018-Feb-11 12:00N 38°39' W 009°05'0 0.0
2018-Feb-11 11:30N 38°39' W 009°05'3 6.2
2018-Feb-11 11:00N 38°41' W 009°08'2 4.7
2018-Feb-11 10:30N 38°39' W 009°06'3 5.0
2018-Feb-11 10:00N 38°41' W 009°08'3 5.5
2018-Feb-11 09:30N 38°39' W 009°06'3 5.1
2018-Feb-11 09:00N 38°41' W 009°08'2 4.9
2018-Feb-11 08:31N 38°39' W 009°06'3 6.0
2018-Feb-11 08:01N 38°42' W 009°08'3 6.6
2018-Feb-11 07:30N 38°39' W 009°05'0 0.9
2018-Feb-11 07:00N 38°39' W 009°06'1 1.8
2018-Feb-11 06:31N 38°40' W 009°07'1 1.5
2018-Feb-11 06:00N 38°40' W 009°06'2 3.9
2018-Feb-11 05:30N 38°41' W 009°08'3 5.9
2018-Feb-11 05:00N 38°39' W 009°05'0 0.0
2018-Feb-11 04:30N 38°39' W 009°05'0 0.0
2018-Feb-11 04:00N 38°39' W 009°05'0 0.0
2018-Feb-11 03:30N 38°39' W 009°05'0 0.0
2018-Feb-11 03:00N 38°39' W 009°05'0 0.0
2018-Feb-11 02:30N 38°39' W 009°05'4 8.3
2018-Feb-11 02:00N 38°42' W 009°08'4 8.3
2018-Feb-11 01:30N 38°39' W 009°05'4 8.3
2018-Feb-11 01:00N 38°42' W 009°08'4 8.3
2018-Feb-11 00:30N 38°39' W 009°05'4 8.3
2018-Feb-11 00:00N 38°42' W 009°08'4 8.4
2018-Feb-10 23:30N 38°39' W 009°05'3 6.2
2018-Feb-10 23:00N 38°41' W 009°08'2 4.3
2018-Feb-10 22:30N 38°39' W 009°06'3 5.4
2018-Feb-10 22:01N 38°42' W 009°08'3 5.5
2018-Feb-10 21:30N 38°39' W 009°06'  
Track history (hours):
 
Tides and Currents Weather Stations Pressure Air Temp Water Temp Dewpoint Dewpoint Depression Visibility Wind Speed Wind Dir Waves Ship Positions

Fernando Pessoa

Last reported at 2018-Feb-20 21:30 UTC. Time now 2018-Feb-20 21:50 UTC.
Position N 38°39' W 009°06'.

Length 49 m.

MMSI: 263701470.

Date/timePositionNaut miles runAvg speedWind from/ knotsBaromVisibWave heightAir tempDewpointWater temp
2018-Feb-20 21:30N 38°39' W 009°06'1 1.6
2018-Feb-20 21:00N 38°39' W 009°05'0 0.0
2018-Feb-20 20:30N 38°39' W 009°05'4 8.3
2018-Feb-20 20:00N 38°42' W 009°08'4 8.4
2018-Feb-20 19:30N 38°39' W 009°05'4 8.0
2018-Feb-20 19:00N 38°42' W 009°08'2 4.6
2018-Feb-20 18:31N 38°40' W 009°07'1 1.7
2018-Feb-20 18:00N 38°40' W 009°06'3 5.9
2018-Feb-20 17:29N 38°42' W 009°08'4 8.7
2018-Feb-20 17:00N 38°39' W 009°05'0 0.3
2018-Feb-20 16:30N 38°39' W 009°05'0 0.0
2018-Feb-20 12:52N 38°39' W 009°05'0 0.0
2018-Feb-20 12:30N 38°39' W 009°05'0 0.1
2018-Feb-20 11:14N 38°39' W 009°05'0 0.0
2018-Feb-20 10:52N 38°39' W 009°05'3 9.0
2018-Feb-20 10:31N 38°41' W 009°08'3 5.3
2018-Feb-20 10:00N 38°39' W 009°06'1 1.5
2018-Feb-20 09:30N 38°39' W 009°05'4 7.8
2018-Feb-20 09:01N 38°42' W 009°08'2 3.7
2018-Feb-20 08:30N 38°40' W 009°07'1 2.3
2018-Feb-20 08:00N 38°40' W 009°06'3 6.2
2018-Feb-20 07:29N 38°42' W 009°08'4 8.6
2018-Feb-20 07:00N 38°39' W 009°05'4 8.2
2018-Feb-20 06:30N 38°42' W 009°08'4 8.3
2018-Feb-20 06:00N 38°39' W 009°05'4 7.9
2018-Feb-20 05:30N 38°42' W 009°08'4 7.7
2018-Feb-20 05:00N 38°39' W 009°05'0 0.0
2018-Feb-20 04:30N 38°39' W 009°05'0 0.0
2018-Feb-20 04:00N 38°39' W 009°05'0 0.0
2018-Feb-20 03:31N 38°39' W 009°05'0 0.0
2018-Feb-20 03:00N 38°39' W 009°05'0 0.0
2018-Feb-20 02:30N 38°39' W 009°05'4 8.3
2018-Feb-20 02:00N 38°42' W 009°08'4 8.3
2018-Feb-20 01:30N 38°39' W 009°05'4 8.3
2018-Feb-20 01:00N 38°42' W 009°08'4 8.3
2018-Feb-20 00:30N 38°39' W 009°05'4 8.3
2018-Feb-20 00:00N 38°42' W 009°08'4 8.4
2018-Feb-19 23:30N 38°39' W 009°05'3 6.3
2018-Feb-19 23:01N 38°41' W 009°08'2 4.9
2018-Feb-19 22:30N 38°39' W 009°06'3 5.2
2018-Feb-19 22:01N 38°41' W 009°08'2 4.9
2018-Feb-19 21:30N 38°39' W 009°06'1 1.8
2018-Feb-19 21:00N 38°39' W 009°05'0 0.0
2018-Feb-19 20:30N 38°39' W 009°05'4 8.3
2018-Feb-19 20:00N 38°42' W 009°08'4 8.4
2018-Feb-19 19:30N 38°39' W 009°05'4 7.8
2018-Feb-19 19:00N 38°42' W 009°08'2 4.6
2018-Feb-19 18:30N 38°40' W 009°07'1 1.7
2018-Feb-19 18:00N 38°39' W 009°06'3 6.7
2018-Feb-19 17:30N 38°42' W 009°08'4 8.3
2018-Feb-19 17:00N 38°39' W 009°05'0 0.0
2018-Feb-19 16:30N 38°39' W 009°05'0 0.0
2018-Feb-19 15:59N 38°39' W 009°05'0 0.0
2018-Feb-19 15:30N 38°39' W 009°05'0 0.0
2018-Feb-19 15:00N 38°39' W 009°05'0 0.0
2018-Feb-19 14:30N 38°39' W 009°05'0 0.0
2018-Feb-19 14:01N 38°39' W 009°05'0 0.0
2018-Feb-19 13:30N 38°39' W 009°05'3 6.8
2018-Feb-19 13:00N 38°41' W 009°08'3 5.3
2018-Feb-19 12:30N 38°39' W 009°06'3 5.4
2018-Feb-19 12:01N 38°42' W 009°07'3 5.6
2018-Feb-19 11:30N 38°39' W 009°06'1 1.2
2018-Feb-19 11:00N 38°39' W 009°05'0 0.0
2018-Feb-19 10:30N 38°39' W 009°05'4 8.2
2018-Feb-19 10:00N 38°42' W 009°08'4 8.4
2018-Feb-19 09:31N 38°39' W 009°05'4 8.3
2018-Feb-19 09:00N 38°42' W 009°08'4 8.0
2018-Feb-19 08:30N 38°39' W 009°05'2 5.0
2018-Feb-19 08:01N 38°41' W 009°08'1 1.9
2018-Feb-19 07:31N 38°40' W 009°07'0 0.9
2018-Feb-19 07:01N 38°40' W 009°06'  
2018-Feb-16 20:01N 38°39' W 009°05'0 0.0
2018-Feb-16 20:00N 38°39' W 009°05'4 7.8
2018-Feb-16 19:30N 38°42' W 009°08'4 8.5
2018-Feb-16 19:00N 38°39' W 009°05'4 8.1
2018-Feb-16 18:31N 38°42' W 009°08'2 4.2
2018-Feb-16 18:00N 38°40' W 009°07'1 2.7
2018-Feb-16 17:30N 38°39' W 009°06'3 6.9
2018-Feb-16 17:00N 38°42' W 009°08'4 8.3
2018-Feb-16 16:30N 38°39' W 009°05'3 7.0
2018-Feb-16 16:00N 38°41' W 009°08'3 5.4
2018-Feb-16 15:30N 38°39' W 009°06'1 1.5
2018-Feb-16 15:00N 38°39' W 009°05'0 0.0
2018-Feb-16 14:30N 38°39' W 009°05'0 0.1
2018-Feb-16 14:00N 38°39' W 009°05'3 6.7
2018-Feb-16 13:30N 38°41' W 009°08'3 5.1
2018-Feb-16 13:00N 38°39' W 009°06'3 5.9
2018-Feb-16 12:30N 38°42' W 009°08'3 6.2
2018-Feb-16 12:00N 38°39' W 009°06'3 5.3
2018-Feb-16 11:30N 38°41' W 009°08'3 6.1
2018-Feb-16 11:00N 38°39' W 009°05'0 0.8
2018-Feb-16 10:30N 38°39' W 009°05'2 3.5
2018-Feb-16 10:00N 38°40' W 009°07'1 1.3
2018-Feb-16 09:30N 38°40' W 009°07'0 0.4
2018-Feb-16 09:01N 38°40' W 009°07'0 0.5
2018-Feb-16 08:31N 38°40' W 009°07'0 0.6
2018-Feb-16 08:01N 38°40' W 009°08'2 3.6
2018-Feb-16 07:30N 38°39' W 009°06'1 1.3
2018-Feb-16 07:01N 38°39' W 009°05'0 0.0
2018-Feb-16 06:30N 38°39' W 009°05'0 0.0
2018-Feb-15 21:32N 38°39' W 009°05'0 0.0
2018-Feb-15 21:29N 38°39' W 009°05'2 4.4
2018-Feb-15 21:01N 38°40' W 009°07'0 0.4
2018-Feb-15 20:31N 38°40' W 009°07'2 4.8
2018-Feb-15 20:00N 38°39' W 009°05'3 5.6
2018-Feb-15 19:30N 38°41' W 009°08'2 3.7
2018-Feb-15 19:01N 38°40' W 009°06'3 6.2
2018-Feb-15 18:29N 38°42' W 009°08'4 8.9
2018-Feb-15 18:00N 38°39' W 009°05'3 5.6
2018-Feb-15 17:30N 38°41' W 009°08'1 1.5
2018-Feb-15 17:00N 38°41' W 009°08'1 1.9
2018-Feb-15 16:31N 38°41' W 009°07'3 5.2
2018-Feb-15 16:01N 38°39' W 009°05'0 0.0
2018-Feb-15 15:30N 38°39' W 009°05'3 6.9
2018-Feb-15 15:00N 38°41' W 009°08'3 5.4
2018-Feb-15 14:30N 38°39' W 009°06'3 5.4
2018-Feb-15 14:00N 38°42' W 009°08'3 5.6
2018-Feb-15 13:30N 38°39' W 009°06'1 1.5
2018-Feb-15 13:00N 38°39' W 009°05'0 0.0
2018-Feb-15 12:30N 38°39' W 009°05'0 0.0
2018-Feb-15 12:00N 38°39' W 009°05'0 0.0
2018-Feb-15 11:30N 38°39' W 009°05'0 0.1
2018-Feb-15 11:00N 38°39' W 009°05'3 6.7
2018-Feb-15 10:30N 38°41' W 009°08'3 5.8
2018-Feb-15 10:00N 38°39' W 009°05'1 1.1
2018-Feb-15 09:31N 38°39' W 009°05'3 5.8
2018-Feb-15 09:01N 38°41' W 009°08'0 0.9
2018-Feb-15 08:31N 38°40' W 009°08'2 4.2
2018-Feb-15 08:00N 38°39' W 009°05'4 7.5
2018-Feb-15 07:30N 38°42' W 009°08'4 8.3
2018-Feb-15 07:00N 38°39' W 009°05'4 7.5
2018-Feb-15 06:30N 38°42' W 009°08'3 6.9
2018-Feb-15 06:00N 38°39' W 009°05'3 7.0
2018-Feb-15 05:31N 38°42' W 009°08'4 7.6
2018-Feb-15 05:00N 38°39' W 009°05'0 0.0
2018-Feb-15 04:30N 38°39' W 009°05'0 0.0
2018-Feb-15 04:00N 38°39' W 009°05'0 0.0
2018-Feb-15 03:30N 38°39' W 009°05'0 0.0
2018-Feb-15 03:00N 38°39' W 009°05'0 0.0
2018-Feb-15 02:30N 38°39' W 009°05'4 8.4
2018-Feb-15 02:00N 38°42' W 009°08'4 8.3
2018-Feb-15 01:30N 38°39' W 009°05'4 8.3
2018-Feb-15 01:01N 38°42' W 009°08'4 8.3
2018-Feb-15 00:31N 38°39' W 009°05'4 8.3
2018-Feb-15 00:00N 38°42' W 009°08'4 8.3
2018-Feb-14 23:30N 38°39' W 009°05'4 7.1
2018-Feb-14 23:00N 38°42' W 009°08'3 6.1
2018-Feb-14 22:30N 38°39' W 009°06'3 5.9
2018-Feb-14 22:00N 38°42' W 009°08'3 5.9
2018-Feb-14 21:30N 38°39' W 009°06'1 1.4
2018-Feb-14 21:00N 38°39' W 009°05'0 0.0
2018-Feb-14 20:30N 38°39' W 009°05'4 8.3
2018-Feb-14 20:00N 38°42' W 009°08'4 8.3
2018-Feb-14 19:30N 38°39' W 009°05'4 8.0
2018-Feb-14 19:01N 38°42' W 009°08'2 4.6
2018-Feb-14 18:30N 38°40' W 009°07'1 2.3
2018-Feb-14 18:00N 38°39' W 009°06'3 7.0
2018-Feb-14 17:30N 38°42' W 009°08'4 8.3
2018-Feb-14 17:00N 38°39' W 009°05'0 0.3
2018-Feb-14 16:29N 38°39' W 009°05'0 0.0
2018-Feb-14 11:31N 38°39' W 009°05'0 0.1
2018-Feb-14 11:30N 38°39' W 009°05'0 0.2
2018-Feb-14 11:00N 38°39' W 009°05'3 6.8
2018-Feb-14 10:30N 38°42' W 009°08'3 5.7
2018-Feb-14 10:00N 38°39' W 009°06'1 1.5
2018-Feb-14 09:30N 38°39' W 009°05'4 7.1
2018-Feb-14 09:00N 38°42' W 009°08'2 3.4
2018-Feb-14 08:31N 38°40' W 009°07'2 4.1
2018-Feb-14 08:00N 38°39' W 009°05'4 7.7
2018-Feb-14 07:29N 38°42' W 009°08'4 8.8
2018-Feb-14 07:00N 38°39' W 009°05'4 8.1
2018-Feb-14 06:31N 38°42' W 009°08'4 7.6
2018-Feb-14 06:00N 38°39' W 009°05'4 7.6
2018-Feb-14 05:31N 38°42' W 009°08'4 7.9
2018-Feb-14 05:00N 38°39' W 009°05'0 0.0
2018-Feb-14 04:30N 38°39' W 009°05'0 0.0
2018-Feb-14 04:01N 38°39' W 009°05'0 0.0
2018-Feb-14 03:31N 38°39' W 009°05'0 0.0
2018-Feb-14 03:01N 38°39' W 009°05'0 0.0
2018-Feb-14 02:31N 38°39' W 009°05'4 8.2
2018-Feb-14 02:00N 38°42' W 009°08'4 8.5
2018-Feb-14 01:30N 38°39' W 009°05'4 8.3
2018-Feb-14 01:00N 38°42' W 009°08'4 8.3
2018-Feb-14 00:30N 38°39' W 009°05'4 8.3
2018-Feb-14 00:00N 38°42' W 009°08'4 8.2
2018-Feb-13 23:30N 38°39' W 009°05'3 6.9
2018-Feb-13 23:00N 38°41' W 009°08'3 5.3
2018-Feb-13 22:30N 38°39' W 009°06'3 5.0
2018-Feb-13 22:01N 38°41' W 009°08'2 4.9
2018-Feb-13 21:30N 38°39' W 009°06'3 5.2
2018-Feb-13 21:01N 38°41' W 009°08'2 4.8
2018-Feb-13 20:30N 38°40' W 009°06'1 2.0
2018-Feb-13 20:00N 38°39' W 009°05'3 6.4
2018-Feb-13 19:30N 38°41' W 009°08'2 4.1
2018-Feb-13 19:00N 38°40' W 009°06'2 4.7
2018-Feb-13 18:30N 38°42' W 009°08'3 5.2
2018-Feb-13 18:00N 38°39' W 009°06'3 5.6
2018-Feb-13 17:30N 38°42' W 009°08'3 5.1
2018-Feb-13 17:00N 38°40' W 009°06'2 4.3
2018-Feb-13 16:30N 38°41' W 009°08'2 4.7
2018-Feb-13 16:00N 38°39' W 009°06'2 4.9
2018-Feb-13 15:30N 38°41' W 009°08'2 4.9
2018-Feb-13 15:00N 38°39' W 009°06'1 1.7
2018-Feb-13 14:30N 38°39' W 009°05'0 0.0
2018-Feb-13 14:00N 38°39' W 009°05'0 0.0
2018-Feb-13 13:30N 38°39' W 009°05'3 6.3
2018-Feb-13 13:00N 38°41' W 009°08'2 4.9
2018-Feb-13 12:31N 38°39' W 009°06'2 5.0
2018-Feb-13 12:01N 38°41' W 009°08'2 4.5
2018-Feb-13 11:30N 38°40' W 009°06'3 5.1
2018-Feb-13 11:00N 38°42' W 009°08'3 5.5
2018-Feb-13 10:31N 38°39' W 009°06'3 5.9
2018-Feb-13 10:00N 38°42' W 009°08'3 6.1
2018-Feb-13 09:30N 38°39' W 009°06'3 6.2
2018-Feb-13 09:00N 38°42' W 009°08'3 6.2
2018-Feb-13 08:30N 38°39' W 009°06'3 6.0
2018-Feb-13 08:00N 38°42' W 009°08'3 6.0
2018-Feb-13 07:30N 38°39' W 009°06'0 0.4
2018-Feb-13 07:00N 38°39' W 009°06'1 2.5
2018-Feb-13 06:31N 38°40' W 009°07'1 1.5
2018-Feb-13 06:00N 38°40' W 009°06'2 3.4
2018-Feb-13 05:30N 38°41' W 009°08'3 5.9
2018-Feb-13 05:00N 38°39' W 009°05'0 0.0
2018-Feb-13 04:29N 38°39' W 009°05'0 0.0
2018-Feb-13 04:00N 38°39' W 009°05'0 0.0
2018-Feb-13 03:30N 38°39' W 009°05'0 0.0
2018-Feb-13 03:00N 38°39' W 009°05'0 0.0
2018-Feb-13 02:30N 38°39' W 009°05'4 8.6
2018-Feb-13 02:00N 38°42' W 009°08'4 8.3
2018-Feb-13 01:30N 38°39' W 009°05'4 8.4
2018-Feb-13 01:00N 38°42' W 009°08'4 8.3
2018-Feb-13 00:30N 38°39' W 009°05'4 8.3
2018-Feb-13 00:00N 38°42' W 009°08'4 8.2
2018-Feb-12 23:30N 38°39' W 009°05'3 6.5
2018-Feb-12 23:00N 38°41' W 009°08'2 4.9
2018-Feb-12 22:30N 38°39' W 009°06'3 5.1
2018-Feb-12 22:00N 38°41' W 009°08'2 4.9
2018-Feb-12 21:30N 38°39' W 009°06'1 1.8
2018-Feb-12 21:00N 38°39' W 009°05'0 0.0
2018-Feb-12 20:31N 38°39' W 009°05'4 8.3
2018-Feb-12 20:00N 38°42' W 009°08'4 8.3
2018-Feb-12 19:31N 38°39' W 009°05'4 7.9
2018-Feb-12 19:00N 38°42' W 009°08'2 4.8
2018-Feb-12 18:30N 38°40' W 009°07'1 1.5
2018-Feb-12 18:00N 38°40' W 009°06'3 6.5
2018-Feb-12 17:31N 38°42' W 009°08'4 8.3
2018-Feb-12 17:00N 38°39' W 009°05'0 0.3
2018-Feb-12 16:29N 38°39' W 009°05'0 0.0
2018-Feb-12 16:00N 38°39' W 009°05'0 0.0
2018-Feb-12 15:30N 38°39' W 009°05'0 0.0
2018-Feb-12 15:00N 38°39' W 009°05'0 0.0
2018-Feb-12 14:30N 38°39' W 009°05'0 0.0
2018-Feb-12 14:00N 38°39' W 009°05'0 0.0
2018-Feb-12 13:30N 38°39' W 009°05'0 0.0
2018-Feb-12 13:00N 38°39' W 009°05'0 0.0
2018-Feb-12 12:30N 38°39' W 009°05'0 0.0
2018-Feb-12 12:00N 38°39' W 009°05'0 0.0
2018-Feb-12 11:30N 38°39' W 009°05'0 0.0
2018-Feb-12 11:00N 38°39' W 009°05'0 0.0
2018-Feb-12 10:30N 38°39' W 009°05'0 0.2
2018-Feb-12 10:00N 38°39' W 009°05'2 3.3
2018-Feb-12 09:30N 38°40' W 009°07'1 1.5
2018-Feb-12 09:01N 38°39' W 009°06'3 6.7
2018-Feb-12 08:30N 38°42' W 009°08'4 8.3
2018-Feb-12 08:00N 38°39' W 009°05'3 6.6
2018-Feb-12 07:30N 38°42' W 009°08'3 6.9
2018-Feb-12 07:00N 38°39' W 009°05'0 0.4
2018-Feb-12 06:30N 38°39' W 009°05'0 0.0
2018-Feb-12 06:00N 38°39' W 009°05'0 0.0
2018-Feb-12 05:30N 38°39' W 009°05'0 0.0
2018-Feb-12 05:00N 38°39' W 009°05'0 0.0
2018-Feb-12 04:30N 38°39' W 009°05'0 0.0
2018-Feb-12 04:00N 38°39' W 009°05'0 0.0
2018-Feb-12 03:30N 38°39' W 009°05'0 0.0
2018-Feb-12 03:00N 38°39' W 009°05'0 0.0
2018-Feb-12 02:30N 38°39' W 009°05'0 0.0
2018-Feb-12 02:00N 38°39' W 009°05'0 0.0
2018-Feb-12 01:30N 38°39' W 009°05'0 0.0
2018-Feb-12 01:00N 38°39' W 009°05'0 0.0
2018-Feb-12 00:30N 38°39' W 009°05'0 0.0
2018-Feb-12 00:00N 38°39' W 009°05'0 0.0
2018-Feb-11 23:30N 38°39' W 009°05'0 0.0
2018-Feb-11 23:00N 38°39' W 009°05'0 0.0
2018-Feb-11 22:30N 38°39' W 009°05'0 0.0
2018-Feb-11 22:00N 38°39' W 009°05'0 0.0
2018-Feb-11 21:30N 38°39' W 009°05'0 0.0
2018-Feb-11 21:00N 38°39' W 009°05'0 0.0
2018-Feb-11 20:30N 38°39' W 009°05'0 0.0
2018-Feb-11 20:00N 38°39' W 009°05'0 0.0
2018-Feb-11 19:30N 38°39' W 009°05'0 0.0
2018-Feb-11 19:00N 38°39' W 009°05'0 0.0
2018-Feb-11 18:30N 38°39' W 009°05'0 0.0
2018-Feb-11 18:00N 38°39' W 009°05'0 0.0
2018-Feb-11 17:30N 38°39' W 009°05'0 0.0
2018-Feb-11 17:00N 38°39' W 009°05'0 0.0
2018-Feb-11 16:30N 38°39' W 009°05'0 0.0
2018-Feb-11 16:00N 38°39' W 009°05'0 0.0
2018-Feb-11 15:30N 38°39' W 009°05'0 0.0
2018-Feb-11 15:00N 38°39' W 009°05'0 0.0
2018-Feb-11 14:30N 38°39' W 009°05'0 0.0
2018-Feb-11 14:00N 38°39' W 009°05'0 0.0
2018-Feb-11 13:30N 38°39' W 009°05'0 0.0
2018-Feb-11 13:00N 38°39' W 009°05'0 0.0
2018-Feb-11 12:30N 38°39' W 009°05'0 0.0
2018-Feb-11 12:00N 38°39' W 009°05'0 0.0
2018-Feb-11 11:30N 38°39' W 009°05'3 6.2
2018-Feb-11 11:00N 38°41' W 009°08'2 4.7
2018-Feb-11 10:30N 38°39' W 009°06'3 5.0
2018-Feb-11 10:00N 38°41' W 009°08'3 5.5
2018-Feb-11 09:30N 38°39' W 009°06'3 5.1
2018-Feb-11 09:00N 38°41' W 009°08'2 4.9
2018-Feb-11 08:31N 38°39' W 009°06'3 6.0
2018-Feb-11 08:01N 38°42' W 009°08'3 6.6
2018-Feb-11 07:30N 38°39' W 009°05'0 0.9
2018-Feb-11 07:00N 38°39' W 009°06'1 1.8
2018-Feb-11 06:31N 38°40' W 009°07'1 1.5
2018-Feb-11 06:00N 38°40' W 009°06'2 3.9
2018-Feb-11 05:30N 38°41' W 009°08'3 5.9
2018-Feb-11 05:00N 38°39' W 009°05'0 0.0
2018-Feb-11 04:30N 38°39' W 009°05'0 0.0
2018-Feb-11 04:00N 38°39' W 009°05'0 0.0
2018-Feb-11 03:30N 38°39' W 009°05'0 0.0
2018-Feb-11 03:00N 38°39' W 009°05'0 0.0
2018-Feb-11 02:30N 38°39' W 009°05'4 8.3
2018-Feb-11 02:00N 38°42' W 009°08'4 8.3
2018-Feb-11 01:30N 38°39' W 009°05'4 8.3
2018-Feb-11 01:00N 38°42' W 009°08'4 8.3
2018-Feb-11 00:30N 38°39' W 009°05'4 8.3
2018-Feb-11 00:00N 38°42' W 009°08'4 8.4
2018-Feb-10 23:30N 38°39' W 009°05'3 6.2
2018-Feb-10 23:00N 38°41' W 009°08'2 4.3
2018-Feb-10 22:30N 38°39' W 009°06'3 5.4
2018-Feb-10 22:01N 38°42' W 009°08'3 5.5
2018-Feb-10 21:30N 38°39' W 009°06'  

Dump ship's entire track history